sensor_id;sensor_type;location;lat;lon;timestamp;pressure;altitude;pressure_sealevel;temperature;humidity
82006;BME280;71529;47.484;19.064;2023-09-08T00:01:10;101068.66;;;21.38;53.37
82006;BME280;71529;47.484;19.064;2023-09-08T00:03:39;101062.56;;;21.36;53.66
82006;BME280;71529;47.484;19.064;2023-09-08T00:06:07;101066.28;;;21.35;53.40
82006;BME280;71529;47.484;19.064;2023-09-08T00:08:36;101068.47;;;21.25;53.60
82006;BME280;71529;47.484;19.064;2023-09-08T00:11:05;101066.97;;;21.22;53.77
82006;BME280;71529;47.484;19.064;2023-09-08T00:13:34;101069.22;;;21.19;54.48
82006;BME280;71529;47.484;19.064;2023-09-08T00:16:02;101069.59;;;21.30;53.34
82006;BME280;71529;47.484;19.064;2023-09-08T00:18:31;101071.38;;;21.23;53.36
82006;BME280;71529;47.484;19.064;2023-09-08T00:21:00;101077.53;;;21.17;53.89
82006;BME280;71529;47.484;19.064;2023-09-08T00:23:28;101067.78;;;21.23;53.97
82006;BME280;71529;47.484;19.064;2023-09-08T00:25:56;101071.09;;;21.18;54.01
82006;BME280;71529;47.484;19.064;2023-09-08T00:28:27;101068.84;;;21.22;53.93
82006;BME280;71529;47.484;19.064;2023-09-08T00:30:55;101080.72;;;21.21;53.99
82006;BME280;71529;47.484;19.064;2023-09-08T00:33:24;101078.78;;;21.15;54.46
82006;BME280;71529;47.484;19.064;2023-09-08T00:35:52;101072.38;;;21.08;54.91
82006;BME280;71529;47.484;19.064;2023-09-08T00:38:24;101070.16;;;21.11;54.55
82006;BME280;71529;47.484;19.064;2023-09-08T00:40:52;101061.63;;;21.14;54.62
82006;BME280;71529;47.484;19.064;2023-09-08T00:43:20;101062.66;;;21.13;54.19
82006;BME280;71529;47.484;19.064;2023-09-08T00:45:50;101059.19;;;21.05;54.75
82006;BME280;71529;47.484;19.064;2023-09-08T00:48:18;101053.56;;;21.06;54.48
82006;BME280;71529;47.484;19.064;2023-09-08T00:50:47;101062.13;;;20.95;54.67
82006;BME280;71529;47.484;19.064;2023-09-08T00:53:16;101053.97;;;20.95;55.16
82006;BME280;71529;47.484;19.064;2023-09-08T00:55:45;101048.47;;;20.88;55.51
82006;BME280;71529;47.484;19.064;2023-09-08T00:58:13;101047.50;;;20.96;55.23
82006;BME280;71529;47.484;19.064;2023-09-08T01:00:41;101046.88;;;20.94;54.99
82006;BME280;71529;47.484;19.064;2023-09-08T01:03:13;101046.69;;;20.96;55.26
82006;BME280;71529;47.484;19.064;2023-09-08T01:05:42;101043.44;;;21.00;54.87
82006;BME280;71529;47.484;19.064;2023-09-08T01:08:14;101039.44;;;20.88;55.29
82006;BME280;71529;47.484;19.064;2023-09-08T01:10:43;101044.97;;;20.80;56.00
82006;BME280;71529;47.484;19.064;2023-09-08T01:13:11;101036.66;;;20.81;55.60
82006;BME280;71529;47.484;19.064;2023-09-08T01:15:39;101036.53;;;20.75;55.78
82006;BME280;71529;47.484;19.064;2023-09-08T01:18:08;101043.28;;;20.79;55.83
82006;BME280;71529;47.484;19.064;2023-09-08T01:20:52;101032.59;;;20.77;55.79
82006;BME280;71529;47.484;19.064;2023-09-08T01:23:37;101039.38;;;20.81;55.47
82006;BME280;71529;47.484;19.064;2023-09-08T01:26:17;101050.22;;;20.81;55.53
82006;BME280;71529;47.484;19.064;2023-09-08T01:28:49;101045.28;;;20.85;55.23
82006;BME280;71529;47.484;19.064;2023-09-08T01:31:18;101045.63;;;20.82;55.39
82006;BME280;71529;47.484;19.064;2023-09-08T01:33:46;101036.25;;;20.84;55.15
82006;BME280;71529;47.484;19.064;2023-09-08T01:36:15;101033.75;;;20.83;55.30
82006;BME280;71529;47.484;19.064;2023-09-08T01:38:43;101037.09;;;20.70;56.14
82006;BME280;71529;47.484;19.064;2023-09-08T01:41:13;101035.66;;;20.60;56.21
82006;BME280;71529;47.484;19.064;2023-09-08T01:43:41;101045.94;;;20.64;56.36
82006;BME280;71529;47.484;19.064;2023-09-08T01:46:09;101038.09;;;20.55;56.95
82006;BME280;71529;47.484;19.064;2023-09-08T01:48:38;101032.28;;;20.58;56.90
82006;BME280;71529;47.484;19.064;2023-09-08T01:51:06;101037.19;;;20.62;56.55
82006;BME280;71529;47.484;19.064;2023-09-08T01:53:34;101030.03;;;20.61;56.45
82006;BME280;71529;47.484;19.064;2023-09-08T01:56:03;101029.09;;;20.54;56.74
82006;BME280;71529;47.484;19.064;2023-09-08T01:58:32;101039.38;;;20.44;58.54
82006;BME280;71529;47.484;19.064;2023-09-08T02:01:01;101036.53;;;20.38;61.17
82006;BME280;71529;47.484;19.064;2023-09-08T02:03:33;101042.69;;;20.32;57.47
82006;BME280;71529;47.484;19.064;2023-09-08T02:06:01;101039.50;;;20.28;57.86
82006;BME280;71529;47.484;19.064;2023-09-08T02:08:29;101038.03;;;20.40;56.89
82006;BME280;71529;47.484;19.064;2023-09-08T02:10:58;101043.28;;;20.42;56.47
82006;BME280;71529;47.484;19.064;2023-09-08T02:13:26;101043.66;;;20.39;56.80
82006;BME280;71529;47.484;19.064;2023-09-08T02:15:56;101053.81;;;20.22;58.65
82006;BME280;71529;47.484;19.064;2023-09-08T02:18:25;101045.41;;;20.32;57.50
82006;BME280;71529;47.484;19.064;2023-09-08T02:20:53;101043.09;;;20.21;57.40
82006;BME280;71529;47.484;19.064;2023-09-08T02:23:22;101045.84;;;20.13;57.93
82006;BME280;71529;47.484;19.064;2023-09-08T02:25:50;101034.97;;;20.21;57.18
82006;BME280;71529;47.484;19.064;2023-09-08T02:28:18;101031.53;;;20.27;57.28
82006;BME280;71529;47.484;19.064;2023-09-08T02:30:46;101039.09;;;20.17;57.70
82006;BME280;71529;47.484;19.064;2023-09-08T02:33:16;101033.81;;;20.15;57.56
82006;BME280;71529;47.484;19.064;2023-09-08T02:35:45;101033.66;;;20.17;57.76
82006;BME280;71529;47.484;19.064;2023-09-08T02:38:13;101028.53;;;20.14;57.84
82006;BME280;71529;47.484;19.064;2023-09-08T02:40:41;101034.81;;;20.14;57.76
82006;BME280;71529;47.484;19.064;2023-09-08T02:43:11;101036.53;;;20.15;57.84
82006;BME280;71529;47.484;19.064;2023-09-08T02:45:39;101032.44;;;20.19;57.77
82006;BME280;71529;47.484;19.064;2023-09-08T02:48:07;101036.69;;;20.14;58.00
82006;BME280;71529;47.484;19.064;2023-09-08T02:50:37;101037.53;;;20.14;58.26
82006;BME280;71529;47.484;19.064;2023-09-08T02:53:05;101037.22;;;20.09;58.45
82006;BME280;71529;47.484;19.064;2023-09-08T02:55:34;101034.72;;;20.08;58.57
82006;BME280;71529;47.484;19.064;2023-09-08T02:58:02;101037.59;;;20.06;58.45
82006;BME280;71529;47.484;19.064;2023-09-08T03:00:30;101048.31;;;20.00;58.91
82006;BME280;71529;47.484;19.064;2023-09-08T03:02:59;101038.00;;;19.95;59.06
82006;BME280;71529;47.484;19.064;2023-09-08T03:05:27;101037.53;;;19.92;59.41
82006;BME280;71529;47.484;19.064;2023-09-08T03:07:57;101037.44;;;20.00;59.21
82006;BME280;71529;47.484;19.064;2023-09-08T03:10:26;101040.72;;;19.95;59.25
82006;BME280;71529;47.484;19.064;2023-09-08T03:12:55;101038.97;;;20.02;58.41
82006;BME280;71529;47.484;19.064;2023-09-08T03:15:23;101044.97;;;19.98;58.94
82006;BME280;71529;47.484;19.064;2023-09-08T03:17:54;101044.47;;;19.94;58.79
82006;BME280;71529;47.484;19.064;2023-09-08T03:20:22;101040.94;;;19.85;59.20
82006;BME280;71529;47.484;19.064;2023-09-08T03:22:51;101041.91;;;19.93;58.99
82006;BME280;71529;47.484;19.064;2023-09-08T03:25:20;101042.94;;;19.92;58.68
82006;BME280;71529;47.484;19.064;2023-09-08T03:27:49;101047.19;;;19.94;58.78
82006;BME280;71529;47.484;19.064;2023-09-08T03:30:17;101040.25;;;19.92;59.04
82006;BME280;71529;47.484;19.064;2023-09-08T03:32:45;101045.84;;;19.90;59.31
82006;BME280;71529;47.484;19.064;2023-09-08T03:35:14;101048.25;;;19.85;59.64
82006;BME280;71529;47.484;19.064;2023-09-08T03:37:42;101041.91;;;19.93;58.90
82006;BME280;71529;47.484;19.064;2023-09-08T03:40:10;101045.84;;;19.90;59.13
82006;BME280;71529;47.484;19.064;2023-09-08T03:42:40;101042.94;;;19.92;58.89
82006;BME280;71529;47.484;19.064;2023-09-08T03:45:09;101041.66;;;19.79;60.06
82006;BME280;71529;47.484;19.064;2023-09-08T03:47:38;101042.66;;;19.78;59.56
82006;BME280;71529;47.484;19.064;2023-09-08T03:50:07;101043.84;;;19.84;59.03
82006;BME280;71529;47.484;19.064;2023-09-08T03:52:37;101040.78;;;19.87;59.50
82006;BME280;71529;47.484;19.064;2023-09-08T03:55:05;101043.13;;;19.90;59.09
82006;BME280;71529;47.484;19.064;2023-09-08T03:57:33;101044.88;;;19.83;60.81
82006;BME280;71529;47.484;19.064;2023-09-08T04:00:04;101050.09;;;19.84;59.42
82006;BME280;71529;47.484;19.064;2023-09-08T04:02:33;101053.31;;;19.88;59.27
82006;BME280;71529;47.484;19.064;2023-09-08T04:05:02;101050.88;;;19.70;59.98
82006;BME280;71529;47.484;19.064;2023-09-08T04:07:30;101046.41;;;19.77;59.56
82006;BME280;71529;47.484;19.064;2023-09-08T04:09:58;101050.97;;;19.85;59.37
82006;BME280;71529;47.484;19.064;2023-09-08T04:12:26;101051.97;;;19.84;59.68
82006;BME280;71529;47.484;19.064;2023-09-08T04:14:54;101047.94;;;19.80;59.80
82006;BME280;71529;47.484;19.064;2023-09-08T04:17:24;101050.19;;;19.68;61.01
82006;BME280;71529;47.484;19.064;2023-09-08T04:19:52;101050.19;;;19.68;59.99
82006;BME280;71529;47.484;19.064;2023-09-08T04:22:21;101055.78;;;19.67;60.05
82006;BME280;71529;47.484;19.064;2023-09-08T04:24:49;101051.44;;;19.58;60.63
82006;BME280;71529;47.484;19.064;2023-09-08T04:27:17;101057.13;;;19.71;60.12
82006;BME280;71529;47.484;19.064;2023-09-08T04:29:46;101053.00;;;19.83;59.94
82006;BME280;71529;47.484;19.064;2023-09-08T04:32:14;101056.41;;;19.77;60.15
82006;BME280;71529;47.484;19.064;2023-09-08T04:34:44;101058.63;;;19.73;61.08
82006;BME280;71529;47.484;19.064;2023-09-08T04:37:12;101052.53;;;19.71;60.49
82006;BME280;71529;47.484;19.064;2023-09-08T04:39:41;101050.38;;;19.67;60.39
82006;BME280;71529;47.484;19.064;2023-09-08T04:42:10;101052.66;;;19.55;60.67
82006;BME280;71529;47.484;19.064;2023-09-08T04:44:39;101056.53;;;19.53;61.04
82006;BME280;71529;47.484;19.064;2023-09-08T04:47:07;101060.03;;;19.69;60.46
82006;BME280;71529;47.484;19.064;2023-09-08T04:49:36;101059.88;;;19.63;60.68
82006;BME280;71529;47.484;19.064;2023-09-08T04:52:06;101061.91;;;19.61;61.02
82006;BME280;71529;47.484;19.064;2023-09-08T04:54:34;101057.34;;;19.61;60.65
82006;BME280;71529;47.484;19.064;2023-09-08T04:57:03;101070.41;;;19.58;61.44
82006;BME280;71529;47.484;19.064;2023-09-08T04:59:48;101061.09;;;19.60;60.88
82006;BME280;71529;47.484;19.064;2023-09-08T05:02:16;101062.94;;;19.60;63.13
82006;BME280;71529;47.484;19.064;2023-09-08T05:04:45;101060.06;;;19.61;61.65
82006;BME280;71529;47.484;19.064;2023-09-08T05:07:16;101060.72;;;19.63;61.38
82006;BME280;71529;47.484;19.064;2023-09-08T05:09:45;101057.31;;;19.69;60.86
82006;BME280;71529;47.484;19.064;2023-09-08T05:12:13;101065.94;;;19.73;60.61
82006;BME280;71529;47.484;19.064;2023-09-08T05:14:42;101069.91;;;19.62;61.03
82006;BME280;71529;47.484;19.064;2023-09-08T05:17:10;101058.06;;;19.55;61.48
82006;BME280;71529;47.484;19.064;2023-09-08T05:19:38;101071.56;;;19.63;61.04
82006;BME280;71529;47.484;19.064;2023-09-08T05:22:07;101067.69;;;19.66;60.66
82006;BME280;71529;47.484;19.064;2023-09-08T05:24:36;101071.94;;;19.52;62.32
82006;BME280;71529;47.484;19.064;2023-09-08T05:27:04;101075.69;;;19.51;62.02
82006;BME280;71529;47.484;19.064;2023-09-08T05:29:33;101074.47;;;19.54;61.68
82006;BME280;71529;47.484;19.064;2023-09-08T05:32:01;101073.78;;;19.60;61.56
82006;BME280;71529;47.484;19.064;2023-09-08T05:34:29;101078.03;;;19.62;61.15
82006;BME280;71529;47.484;19.064;2023-09-08T05:36:57;101072.44;;;19.64;60.75
82006;BME280;71529;47.484;19.064;2023-09-08T05:39:26;101077.47;;;19.67;61.37
82006;BME280;71529;47.484;19.064;2023-09-08T05:41:56;101074.72;;;19.75;60.29
82006;BME280;71529;47.484;19.064;2023-09-08T05:44:24;101074.97;;;19.65;60.93
82006;BME280;71529;47.484;19.064;2023-09-08T05:46:52;101074.41;;;19.70;61.11
82006;BME280;71529;47.484;19.064;2023-09-08T05:49:21;101077.78;;;19.72;61.80
82006;BME280;71529;47.484;19.064;2023-09-08T05:51:49;101077.03;;;19.86;60.21
82006;BME280;71529;47.484;19.064;2023-09-08T05:54:17;101073.84;;;19.82;60.34
82006;BME280;71529;47.484;19.064;2023-09-08T05:56:55;101071.94;;;19.91;60.42
82006;BME280;71529;47.484;19.064;2023-09-08T05:59:23;101071.09;;;19.91;61.12
82006;BME280;71529;47.484;19.064;2023-09-08T06:01:51;101073.75;;;19.99;60.22
82006;BME280;71529;47.484;19.064;2023-09-08T06:04:20;101070.97;;;20.07;59.70
82006;BME280;71529;47.484;19.064;2023-09-08T06:06:48;101075.41;;;20.08;60.06
82006;BME280;71529;47.484;19.064;2023-09-08T06:09:16;101071.47;;;20.10;60.26
82006;BME280;71529;47.484;19.064;2023-09-08T06:11:45;101078.38;;;20.21;59.49
82006;BME280;71529;47.484;19.064;2023-09-08T06:14:15;101082.44;;;20.25;59.59
82006;BME280;71529;47.484;19.064;2023-09-08T06:16:43;101076.63;;;20.28;59.25
82006;BME280;71529;47.484;19.064;2023-09-08T06:19:12;101080.88;;;20.30;59.33
82006;BME280;71529;47.484;19.064;2023-09-08T06:21:40;101084.25;;;20.32;59.43
82006;BME280;71529;47.484;19.064;2023-09-08T06:24:08;101081.59;;;20.47;58.29
82006;BME280;71529;47.484;19.064;2023-09-08T06:26:37;101087.38;;;20.44;58.56
82006;BME280;71529;47.484;19.064;2023-09-08T06:29:06;101091.03;;;20.51;58.81
82006;BME280;71529;47.484;19.064;2023-09-08T06:31:36;101096.28;;;20.52;58.04
82006;BME280;71529;47.484;19.064;2023-09-08T06:34:04;101090.69;;;20.54;58.45
82006;BME280;71529;47.484;19.064;2023-09-08T06:36:32;101090.53;;;20.55;58.27
82006;BME280;71529;47.484;19.064;2023-09-08T06:39:01;101088.81;;;20.54;57.90
82006;BME280;71529;47.484;19.064;2023-09-08T06:41:30;101088.47;;;20.57;57.90
82006;BME280;71529;47.484;19.064;2023-09-08T06:43:58;101087.25;;;20.60;57.51
82006;BME280;71529;47.484;19.064;2023-09-08T06:46:27;101080.44;;;20.64;57.59
82006;BME280;71529;47.484;19.064;2023-09-08T06:48:57;101089.53;;;20.71;57.39
82006;BME280;71529;47.484;19.064;2023-09-08T06:51:25;101088.69;;;20.70;57.41
82006;BME280;71529;47.484;19.064;2023-09-08T06:53:54;101095.25;;;20.76;57.29
82006;BME280;71529;47.484;19.064;2023-09-08T06:56:23;101092.34;;;20.77;56.85
82006;BME280;71529;47.484;19.064;2023-09-08T06:58:51;101088.44;;;20.80;57.35
82006;BME280;71529;47.484;19.064;2023-09-08T07:01:19;101087.31;;;20.89;57.09
82006;BME280;71529;47.484;19.064;2023-09-08T07:03:48;101088.34;;;20.88;57.47
82006;BME280;71529;47.484;19.064;2023-09-08T07:06:18;101085.91;;;20.93;56.47
82006;BME280;71529;47.484;19.064;2023-09-08T07:08:49;101089.66;;;20.92;57.66
82006;BME280;71529;47.484;19.064;2023-09-08T07:11:17;101093.38;;;20.99;56.60
82006;BME280;71529;47.484;19.064;2023-09-08T07:13:46;101083.31;;;21.00;56.43
82006;BME280;71529;47.484;19.064;2023-09-08T07:16:14;101087.38;;;21.04;56.97
82006;BME280;71529;47.484;19.064;2023-09-08T07:18:43;101074.16;;;21.01;56.27
82006;BME280;71529;47.484;19.064;2023-09-08T07:21:11;101075.78;;;21.10;55.98
82006;BME280;71529;47.484;19.064;2023-09-08T07:23:40;101072.94;;;21.18;55.62
82006;BME280;71529;47.484;19.064;2023-09-08T07:26:08;101067.25;;;21.13;55.76
82006;BME280;71529;47.484;19.064;2023-09-08T07:28:37;101070.34;;;21.10;55.30
82006;BME280;71529;47.484;19.064;2023-09-08T07:31:05;101061.81;;;21.13;55.79
82006;BME280;71529;47.484;19.064;2023-09-08T07:33:36;101063.47;;;21.14;55.66
82006;BME280;71529;47.484;19.064;2023-09-08T07:36:05;101049.44;;;21.25;55.16
82006;BME280;71529;47.484;19.064;2023-09-08T07:38:33;101052.72;;;21.20;55.36
82006;BME280;71529;47.484;19.064;2023-09-08T07:41:04;101053.53;;;21.21;55.33
82006;BME280;71529;47.484;19.064;2023-09-08T07:43:32;101059.75;;;21.29;55.17
82006;BME280;71529;47.484;19.064;2023-09-08T07:46:00;101054.88;;;21.25;55.40
82006;BME280;71529;47.484;19.064;2023-09-08T07:48:30;101051.97;;;21.26;55.20
82006;BME280;71529;47.484;19.064;2023-09-08T07:50:59;101042.78;;;21.27;55.27
82006;BME280;71529;47.484;19.064;2023-09-08T07:53:28;101051.59;;;21.29;55.09
82006;BME280;71529;47.484;19.064;2023-09-08T07:55:56;101043.06;;;21.32;55.12
82006;BME280;71529;47.484;19.064;2023-09-08T07:58:26;101048.69;;;21.31;55.65
82006;BME280;71529;47.484;19.064;2023-09-08T08:00:55;101049.97;;;21.35;55.59
82006;BME280;71529;47.484;19.064;2023-09-08T08:03:23;101050.84;;;21.35;55.67
82006;BME280;71529;47.484;19.064;2023-09-08T08:05:51;101054.22;;;21.37;55.92
82006;BME280;71529;47.484;19.064;2023-09-08T08:19:22;101050.56;;;21.45;56.25
82006;BME280;71529;47.484;19.064;2023-09-08T08:21:53;101047.25;;;21.49;56.36
82006;BME280;71529;47.484;19.064;2023-09-08T08:24:23;101049.44;;;21.54;56.08
82006;BME280;71529;47.484;19.064;2023-09-08T08:26:51;101050.81;;;21.64;54.75
82006;BME280;71529;47.484;19.064;2023-09-08T08:29:19;101048.09;;;21.64;55.03
82006;BME280;71529;47.484;19.064;2023-09-08T08:31:49;101047.97;;;21.87;53.87
82006;BME280;71529;47.484;19.064;2023-09-08T08:34:17;101047.13;;;21.86;54.15
82006;BME280;71529;47.484;19.064;2023-09-08T08:36:45;101044.41;;;21.86;53.97
82006;BME280;71529;47.484;19.064;2023-09-08T08:39:13;101047.31;;;21.85;54.69
82006;BME280;71529;47.484;19.064;2023-09-08T08:41:43;101038.72;;;21.81;54.81
82006;BME280;71529;47.484;19.064;2023-09-08T08:44:11;101032.22;;;21.82;55.22
82006;BME280;71529;47.484;19.064;2023-09-08T08:46:40;101026.97;;;21.81;55.55
82006;BME280;71529;47.484;19.064;2023-09-08T08:49:11;101028.69;;;21.82;55.40
82006;BME280;71529;47.484;19.064;2023-09-08T08:51:44;101032.88;;;21.84;55.40
82006;BME280;71529;47.484;19.064;2023-09-08T08:54:13;101032.94;;;21.91;55.30
82006;BME280;71529;47.484;19.064;2023-09-08T08:56:42;101030.63;;;21.88;56.15
82006;BME280;71529;47.484;19.064;2023-09-08T08:59:11;101030.16;;;21.84;56.16
82006;BME280;71529;47.484;19.064;2023-09-08T09:01:41;101036.06;;;21.88;55.33
82006;BME280;71529;47.484;19.064;2023-09-08T09:04:12;101034.25;;;21.95;55.67
82006;BME280;71529;47.484;19.064;2023-09-08T09:06:40;101023.31;;;21.88;55.79
82006;BME280;71529;47.484;19.064;2023-09-08T09:09:09;101029.59;;;21.89;56.00
82006;BME280;71529;47.484;19.064;2023-09-08T09:11:37;101029.25;;;21.98;55.58
82006;BME280;71529;47.484;19.064;2023-09-08T09:14:06;101021.50;;;21.95;55.74
82006;BME280;71529;47.484;19.064;2023-09-08T09:16:38;101027.59;;;21.98;55.71
82006;BME280;71529;47.484;19.064;2023-09-08T09:19:07;101016.81;;;22.11;55.35
82006;BME280;71529;47.484;19.064;2023-09-08T09:21:43;101009.66;;;22.03;55.46
82006;BME280;71529;47.484;19.064;2023-09-08T09:24:16;101016.13;;;22.02;56.34
82006;BME280;71529;47.484;19.064;2023-09-08T09:26:51;101012.53;;;22.02;56.10
82006;BME280;71529;47.484;19.064;2023-09-08T09:29:20;101009.00;;;22.01;55.96
82006;BME280;71529;47.484;19.064;2023-09-08T09:31:51;101020.34;;;22.05;56.22
82006;BME280;71529;47.484;19.064;2023-09-08T09:34:21;101017.44;;;22.06;56.38
82006;BME280;71529;47.484;19.064;2023-09-08T09:36:51;101020.81;;;22.08;55.42
82006;BME280;71529;47.484;19.064;2023-09-08T09:39:20;101007.38;;;22.07;55.58
82006;BME280;71529;47.484;19.064;2023-09-08T09:41:49;101009.91;;;22.08;55.08
82006;BME280;71529;47.484;19.064;2023-09-08T09:44:21;101008.88;;;22.09;55.13
82006;BME280;71529;47.484;19.064;2023-09-08T09:46:52;101002.41;;;22.10;55.35
82006;BME280;71529;47.484;19.064;2023-09-08T09:49:20;101005.94;;;22.11;55.16
82006;BME280;71529;47.484;19.064;2023-09-08T09:51:53;101000.94;;;22.14;55.46
82006;BME280;71529;47.484;19.064;2023-09-08T09:54:22;101005.84;;;22.19;55.35
82006;BME280;71529;47.484;19.064;2023-09-08T09:56:52;101010.88;;;22.22;54.83
82006;BME280;71529;47.484;19.064;2023-09-08T09:59:21;101006.94;;;22.24;54.62
82006;BME280;71529;47.484;19.064;2023-09-08T10:01:51;101009.25;;;22.27;54.27
82006;BME280;71529;47.484;19.064;2023-09-08T10:04:20;101010.94;;;22.28;54.51
82006;BME280;71529;47.484;19.064;2023-09-08T10:06:50;101015.34;;;22.29;54.84
82006;BME280;71529;47.484;19.064;2023-09-08T10:09:19;101007.19;;;22.29;54.71
82006;BME280;71529;47.484;19.064;2023-09-08T10:11:49;101013.25;;;22.31;54.43
82006;BME280;71529;47.484;19.064;2023-09-08T10:14:18;101008.66;;;22.32;54.19
82006;BME280;71529;47.484;19.064;2023-09-08T10:16:49;101008.25;;;22.35;53.65
82006;BME280;71529;47.484;19.064;2023-09-08T10:19:20;101003.47;;;22.37;53.75
82006;BME280;71529;47.484;19.064;2023-09-08T10:21:51;100999.31;;;22.41;52.57
82006;BME280;71529;47.484;19.064;2023-09-08T10:24:25;100995.38;;;22.43;52.72
82006;BME280;71529;47.484;19.064;2023-09-08T10:27:04;101000.75;;;22.58;51.01
82006;BME280;71529;47.484;19.064;2023-09-08T10:29:32;100988.69;;;22.73;49.38
82006;BME280;71529;47.484;19.064;2023-09-08T10:32:02;100986.50;;;22.83;50.34
82006;BME280;71529;47.484;19.064;2023-09-08T10:34:33;100983.56;;;22.85;49.42
82006;BME280;71529;47.484;19.064;2023-09-08T10:37:18;100979.53;;;22.81;50.87
82006;BME280;71529;47.484;19.064;2023-09-08T10:39:46;100979.94;;;22.78;51.38
82006;BME280;71529;47.484;19.064;2023-09-08T10:42:25;100975.72;;;22.75;51.68
82006;BME280;71529;47.484;19.064;2023-09-08T10:45:00;100977.44;;;22.76;51.49
82006;BME280;71529;47.484;19.064;2023-09-08T10:47:32;100974.25;;;22.73;51.72
82006;BME280;71529;47.484;19.064;2023-09-08T10:50:01;100974.13;;;22.87;49.11
82006;BME280;71529;47.484;19.064;2023-09-08T10:52:34;100967.03;;;22.93;49.62
82006;BME280;71529;47.484;19.064;2023-09-08T10:55:03;100974.22;;;23.00;49.36
82006;BME280;71529;47.484;19.064;2023-09-08T10:57:33;100962.13;;;23.16;44.49
82006;BME280;71529;47.484;19.064;2023-09-08T11:00:03;100967.00;;;23.21;45.82
82006;BME280;71529;47.484;19.064;2023-09-08T11:02:40;100972.19;;;23.50;45.08
82006;BME280;71529;47.484;19.064;2023-09-08T11:05:11;100966.09;;;23.48;46.45
82006;BME280;71529;47.484;19.064;2023-09-08T11:07:42;100964.13;;;23.35;46.78
82006;BME280;71529;47.484;19.064;2023-09-08T11:10:12;100962.25;;;23.29;46.03
82006;BME280;71529;47.484;19.064;2023-09-08T11:12:40;100960.16;;;23.31;46.36
82006;BME280;71529;47.484;19.064;2023-09-08T11:15:09;100952.00;;;23.38;45.37
82006;BME280;71529;47.484;19.064;2023-09-08T11:17:38;100953.66;;;23.39;46.42
82006;BME280;71529;47.484;19.064;2023-09-08T11:20:10;100955.81;;;23.50;44.28
82006;BME280;71529;47.484;19.064;2023-09-08T11:22:40;100952.88;;;23.58;44.69
82006;BME280;71529;47.484;19.064;2023-09-08T11:25:09;100956.47;;;23.58;45.56
82006;BME280;71529;47.484;19.064;2023-09-08T11:27:38;100945.56;;;23.65;45.57
82006;BME280;71529;47.484;19.064;2023-09-08T11:30:08;100949.56;;;23.75;43.38
82006;BME280;71529;47.484;19.064;2023-09-08T11:32:37;100943.50;;;23.80;43.30
82006;BME280;71529;47.484;19.064;2023-09-08T11:35:07;100942.06;;;23.84;42.60
82006;BME280;71529;47.484;19.064;2023-09-08T11:37:36;100930.31;;;23.90;42.58
82006;BME280;71529;47.484;19.064;2023-09-08T11:40:08;100939.34;;;23.84;43.97
82006;BME280;71529;47.484;19.064;2023-09-08T11:42:39;100934.28;;;23.81;44.61
82006;BME280;71529;47.484;19.064;2023-09-08T11:45:11;100943.50;;;23.73;44.92
82006;BME280;71529;47.484;19.064;2023-09-08T11:47:41;100926.50;;;23.71;44.84
82006;BME280;71529;47.484;19.064;2023-09-08T11:50:11;100933.63;;;23.79;46.36
82006;BME280;71529;47.484;19.064;2023-09-08T11:52:43;100925.69;;;23.84;44.21
82006;BME280;71529;47.484;19.064;2023-09-08T11:55:13;100929.06;;;23.92;43.39
82006;BME280;71529;47.484;19.064;2023-09-08T11:57:43;100925.94;;;24.08;43.41
82006;BME280;71529;47.484;19.064;2023-09-08T12:00:12;100916.06;;;24.01;43.78
82006;BME280;71529;47.484;19.064;2023-09-08T12:02:44;100918.34;;;23.91;45.06
82006;BME280;71529;47.484;19.064;2023-09-08T12:05:14;100921.31;;;24.02;41.97
82006;BME280;71529;47.484;19.064;2023-09-08T12:07:48;100924.84;;;23.96;43.24
82006;BME280;71529;47.484;19.064;2023-09-08T12:10:18;100908.53;;;24.03;42.50
82006;BME280;71529;47.484;19.064;2023-09-08T12:12:47;100919.03;;;23.99;43.20
82006;BME280;71529;47.484;19.064;2023-09-08T12:15:33;100902.41;;;24.07;41.45
82006;BME280;71529;47.484;19.064;2023-09-08T12:18:02;100902.63;;;24.32;38.84
82006;BME280;71529;47.484;19.064;2023-09-08T12:20:31;100902.41;;;24.34;39.38
82006;BME280;71529;47.484;19.064;2023-09-08T12:23:01;100894.88;;;24.29;39.71
82006;BME280;71529;47.484;19.064;2023-09-08T12:25:31;100888.13;;;24.38;39.79
82006;BME280;71529;47.484;19.064;2023-09-08T12:28:04;100884.16;;;24.28;40.20
82006;BME280;71529;47.484;19.064;2023-09-08T12:30:33;100888.97;;;24.19;42.11
82006;BME280;71529;47.484;19.064;2023-09-08T12:33:01;100890.44;;;24.08;41.92
82006;BME280;71529;47.484;19.064;2023-09-08T12:35:30;100885.81;;;24.09;40.14
82006;BME280;71529;47.484;19.064;2023-09-08T12:38:01;100885.19;;;24.07;41.04
82006;BME280;71529;47.484;19.064;2023-09-08T12:40:33;100892.75;;;24.05;40.89
82006;BME280;71529;47.484;19.064;2023-09-08T12:43:01;100884.56;;;24.05;41.48
82006;BME280;71529;47.484;19.064;2023-09-08T12:45:49;100877.00;;;24.07;41.52
82006;BME280;71529;47.484;19.064;2023-09-08T12:48:18;100880.38;;;24.02;41.64
82006;BME280;71529;47.484;19.064;2023-09-08T12:50:46;100877.63;;;23.96;42.98
82006;BME280;71529;47.484;19.064;2023-09-08T12:53:16;100872.13;;;23.89;44.92
82006;BME280;71529;47.484;19.064;2023-09-08T12:55:46;100865.44;;;23.85;43.96
82006;BME280;71529;47.484;19.064;2023-09-08T12:58:14;100858.28;;;23.84;43.20
82006;BME280;71529;47.484;19.064;2023-09-08T13:00:44;100861.44;;;23.81;44.11
82006;BME280;71529;47.484;19.064;2023-09-08T13:03:13;100864.81;;;23.77;44.96